Time;durP1;ratioP1;P1;durP2;ratioP2;P2;SDS_P1;SDS_P2;PMS_P1;PMS_P2;Temp;Humidity;BMP_temperature;BMP_pressure;BME280_temperature;BME280_humidity;BME280_pressure;Samples;Min_cycle;Max_cycle;Signal;HPM_P1;HPM_P2
2022/12/11 00:01:57;;;;;;;146.32;41.83;;;-3.90;99.90;;;;;;5088881;28;20032;-89
2022/12/11 00:04:23;;;;;;;115.13;37.08;;;-3.90;99.90;;;;;;5085177;28;20460;-88
2022/12/11 00:07:05;;;;;;;120.82;36.78;;;-3.90;99.90;;;;;;5059365;28;20136;-88
2022/12/11 00:09:45;;;;;;;119.60;36.53;;;-4.00;99.90;;;;;;5075284;28;20024;-88
2022/12/11 00:12:11;;;;;;;108.10;35.13;;;-4.00;99.90;;;;;;5076106;28;20384;-88
2022/12/11 00:18:00;;;;;;;101.82;33.25;;;-4.30;99.90;;;;;;5074491;28;20081;-89
2022/12/11 00:20:26;;;;;;;115.07;37.22;;;-4.50;99.90;;;;;;5059344;28;20024;-88
2022/12/11 00:22:52;;;;;;;188.27;58.83;;;-4.60;99.90;;;;;;5075747;28;20033;-89
2022/12/11 00:25:17;;;;;;;227.23;71.05;;;-4.60;99.90;;;;;;5051333;28;20044;-88
2022/12/11 00:27:45;;;;;;;149.02;44.78;;;-4.60;99.90;;;;;;5058364;28;20036;-89
2022/12/11 00:30:11;;;;;;;131.15;42.80;;;-4.60;99.90;;;;;;5072683;28;20098;-88
2022/12/11 00:32:37;;;;;;;118.90;37.17;;;-4.60;99.90;;;;;;5064861;28;20048;-89
2022/12/11 00:35:03;;;;;;;114.22;38.33;;;-4.70;99.90;;;;;;5068401;28;20051;-90
2022/12/11 00:37:28;;;;;;;123.45;39.53;;;-4.70;99.90;;;;;;5058486;28;20032;-89
2022/12/11 00:40:10;;;;;;;129.10;40.92;;;-4.80;99.90;;;;;;5075484;28;20029;-88
2022/12/11 00:42:35;;;;;;;126.00;41.25;;;-4.80;99.90;;;;;;5078661;28;20081;-89
2022/12/11 00:45:01;;;;;;;133.57;43.42;;;-4.90;99.90;;;;;;5079330;28;20491;-89
2022/12/11 00:47:27;;;;;;;133.43;42.92;;;-4.90;99.90;;;;;;5052132;28;20064;-89
2022/12/11 00:49:53;;;;;;;138.30;44.58;;;-4.80;99.90;;;;;;5075098;28;20090;-89
2022/12/11 00:52:18;;;;;;;143.70;44.58;;;-4.90;99.90;;;;;;5053161;28;20029;-88
2022/12/11 00:54:44;;;;;;;148.15;48.28;;;-4.90;99.90;;;;;;5058163;28;20463;-88
2022/12/11 00:57:10;;;;;;;146.88;47.85;;;-4.90;99.90;;;;;;5075298;28;20021;-89
2022/12/11 00:59:35;;;;;;;156.32;46.83;;;-4.80;99.90;;;;;;5066604;28;20032;-89
2022/12/11 01:02:01;;;;;;;152.07;47.45;;;-4.70;99.90;;;;;;5073686;28;20472;-88
2022/12/11 01:04:27;;;;;;;154.48;50.97;;;-4.60;99.90;;;;;;5051554;28;20119;-89
2022/12/11 01:06:52;;;;;;;163.32;49.60;;;-4.60;99.90;;;;;;5083571;28;20040;-89
2022/12/11 01:12:02;;;;;;;147.48;46.25;;;-4.50;99.90;;;;;;5074751;28;20025;-89
2022/12/11 01:14:28;;;;;;;158.27;51.25;;;-4.40;99.90;;;;;;5076105;28;20029;-88
2022/12/11 01:17:09;;;;;;;158.10;50.85;;;-4.30;99.90;;;;;;5079464;28;20074;-89
2022/12/11 01:19:36;;;;;;;144.93;48.25;;;-4.30;99.90;;;;;;5074256;28;20384;-89
2022/12/11 01:22:01;;;;;;;131.68;48.45;;;-4.20;99.90;;;;;;5074232;28;20070;-89
2022/12/11 01:24:27;;;;;;;137.05;46.28;;;-4.20;99.90;;;;;;5055668;28;20032;-88
2022/12/11 01:26:53;;;;;;;151.65;49.20;;;-4.30;99.90;;;;;;5066284;28;20028;-88
2022/12/11 01:29:19;;;;;;;163.65;52.83;;;-4.40;99.90;;;;;;5060153;28;20032;-88
2022/12/11 01:31:44;;;;;;;141.50;48.30;;;-4.40;99.90;;;;;;5060838;28;20024;-88
2022/12/11 01:34:10;;;;;;;138.45;44.20;;;-4.40;99.90;;;;;;5074332;28;20025;-89
2022/12/11 01:36:36;;;;;;;140.57;47.28;;;-4.30;99.90;;;;;;5051559;28;20029;-89
2022/12/11 01:39:04;;;;;;;115.78;35.33;;;-4.30;99.90;;;;;;5084163;28;20136;-89
2022/12/11 01:41:30;;;;;;;112.63;34.83;;;-4.30;99.90;;;;;;5071792;28;20430;-88
2022/12/11 01:44:05;;;;;;;118.28;37.72;;;-4.40;99.90;;;;;;5074057;28;20024;-89
2022/12/11 01:46:32;;;;;;;112.55;35.70;;;-4.40;99.90;;;;;;5051709;28;20025;-89
2022/12/11 01:49:00;;;;;;;145.48;43.50;;;-4.40;99.90;;;;;;5073785;28;20039;-89
2022/12/11 01:51:29;;;;;;;120.10;39.42;;;-4.30;99.90;;;;;;5071858;28;20056;-89
2022/12/11 01:54:01;;;;;;;106.82;36.75;;;-4.30;99.90;;;;;;5062253;28;20016;-90
2022/12/11 01:56:29;;;;;;;127.32;37.30;;;-4.40;99.90;;;;;;5070133;28;20372;-88
2022/12/11 01:58:59;;;;;;;112.07;35.95;;;-4.40;99.90;;;;;;5046189;28;20044;-89
2022/12/11 02:01:43;;;;;;;126.05;38.05;;;-4.40;99.90;;;;;;5073875;28;20054;-88
2022/12/11 02:04:22;;;;;;;125.45;39.55;;;-4.40;99.90;;;;;;5082591;28;20020;-89
2022/12/11 02:06:50;;;;;;;128.13;43.40;;;-4.40;99.90;;;;;;5072335;28;20024;-88
2022/12/11 02:09:21;;;;;;;133.10;42.72;;;-4.40;99.90;;;;;;5054802;28;20033;-88
2022/12/11 02:12:15;;;;;;;117.70;41.00;;;-4.40;99.90;;;;;;5067747;28;20025;-88
2022/12/11 02:15:07;;;;;;;118.57;39.67;;;-4.20;99.90;;;;;;5054779;28;20032;-88
2022/12/11 02:17:54;;;;;;;106.57;35.25;;;-4.20;99.90;;;;;;5059846;28;20124;-89
2022/12/11 02:20:29;;;;;;;120.55;38.58;;;-4.20;99.90;;;;;;5078215;28;20032;-90
2022/12/11 02:23:04;;;;;;;134.32;41.08;;;-4.10;99.90;;;;;;5060248;28;20028;-89
2022/12/11 02:25:58;;;;;;;113.22;37.70;;;-4.00;99.90;;;;;;5053231;28;20092;-89
2022/12/11 02:28:45;;;;;;;128.57;41.03;;;-4.10;99.90;;;;;;5065554;28;20041;-88
2022/12/11 02:31:23;;;;;;;122.40;38.90;;;-4.10;99.90;;;;;;5066642;28;20028;-89
2022/12/11 02:33:58;;;;;;;128.27;41.90;;;-4.10;99.90;;;;;;5073472;28;20036;-88
2022/12/11 02:36:28;;;;;;;131.02;41.53;;;-4.10;99.90;;;;;;5078686;28;20036;-89
2022/12/11 02:38:57;;;;;;;135.00;45.05;;;-4.00;99.90;;;;;;5058658;28;20025;-89
2022/12/11 02:41:23;;;;;;;117.68;43.40;;;-4.00;99.90;;;;;;5064382;28;20028;-89
2022/12/11 02:43:50;;;;;;;117.47;40.90;;;-3.90;99.90;;;;;;5056820;28;20036;-89
2022/12/11 02:46:18;;;;;;;109.60;38.95;;;-3.80;99.90;;;;;;5073315;28;20028;-89
2022/12/11 02:48:47;;;;;;;122.47;41.90;;;-3.90;99.90;;;;;;5066836;28;20032;-89
2022/12/11 02:51:14;;;;;;;126.45;45.65;;;-3.90;99.90;;;;;;5073202;28;20033;-89
2022/12/11 02:53:42;;;;;;;119.85;44.67;;;-3.80;99.90;;;;;;5068736;28;20021;-89
2022/12/11 02:56:18;;;;;;;117.25;40.30;;;-3.80;99.90;;;;;;5073454;28;20028;-89
2022/12/11 02:58:49;;;;;;;106.18;38.40;;;-3.70;99.90;;;;;;5053848;28;20060;-88
2022/12/11 03:01:15;;;;;;;119.07;41.30;;;-3.70;99.90;;;;;;5073406;28;20033;-89
2022/12/11 03:03:41;;;;;;;106.22;38.30;;;-3.70;99.90;;;;;;5063728;28;20032;-88
2022/12/11 03:06:10;;;;;;;133.70;43.30;;;-3.80;99.90;;;;;;5073203;28;20024;-89
2022/12/11 03:08:36;;;;;;;116.55;42.60;;;-3.80;99.90;;;;;;5067849;28;20467;-89
2022/12/11 03:11:01;;;;;;;122.15;42.58;;;-3.80;99.90;;;;;;5073019;28;20074;-89
2022/12/11 03:13:27;;;;;;;124.75;44.65;;;-3.80;99.90;;;;;;5055976;28;20024;-89
2022/12/11 03:16:17;;;;;;;123.55;42.88;;;-3.70;99.90;;;;;;5085572;28;20029;-89
2022/12/11 03:19:02;;;;;;;108.97;39.35;;;-3.70;99.90;;;;;;5083905;28;20111;-89
2022/12/11 03:21:35;;;;;;;104.45;37.40;;;-3.70;99.90;;;;;;5070461;28;20036;-89
2022/12/11 03:24:09;;;;;;;103.00;36.85;;;-3.70;99.90;;;;;;5070068;28;20039;-89
2022/12/11 03:26:41;;;;;;;103.25;35.33;;;-3.70;99.90;;;;;;5055129;28;20086;-89
2022/12/11 03:29:22;;;;;;;106.75;35.53;;;-3.60;99.90;;;;;;5070011;28;20060;-89
2022/12/11 03:32:10;;;;;;;102.10;35.63;;;-3.60;99.90;;;;;;5064068;28;20063;-88
2022/12/11 03:34:42;;;;;;;92.40;33.55;;;-3.50;99.90;;;;;;5068642;28;20427;-89
2022/12/11 03:37:09;;;;;;;90.75;31.33;;;-3.50;99.90;;;;;;5072986;28;20543;-88
2022/12/11 03:39:38;;;;;;;84.88;28.73;;;-3.50;99.90;;;;;;5076334;28;20025;-88
2022/12/11 03:42:07;;;;;;;85.15;29.73;;;-3.40;99.90;;;;;;5072651;28;20035;-89
2022/12/11 03:45:28;;;;;;;76.65;29.15;;;-3.40;99.90;;;;;;5075214;28;20116;-89
2022/12/11 03:47:56;;;;;;;84.65;29.33;;;-3.40;99.90;;;;;;5061850;28;20029;-88
2022/12/11 03:50:25;;;;;;;79.20;28.08;;;-3.40;99.90;;;;;;5080644;28;20029;-89
2022/12/11 03:52:52;;;;;;;76.47;29.58;;;-3.40;99.90;;;;;;5076086;28;20475;-89
2022/12/11 03:55:20;;;;;;;92.43;32.92;;;-3.40;99.90;;;;;;5084358;28;20369;-89
2022/12/11 03:57:46;;;;;;;92.05;30.13;;;-3.40;99.90;;;;;;5058691;28;20428;-89
2022/12/11 04:00:16;;;;;;;80.10;29.70;;;-3.40;99.90;;;;;;5073394;28;20041;-88
2022/12/11 04:03:11;;;;;;;87.15;31.48;;;-3.40;99.90;;;;;;5072759;28;20476;-88
2022/12/11 04:05:34;;;;;;;80.68;28.20;;;-3.40;99.90;;;;;;5069338;28;20033;-89
2022/12/11 04:08:00;;;;;;;85.03;31.23;;;-3.40;99.90;;;;;;5058931;28;20027;-89
2022/12/11 04:10:26;;;;;;;79.10;28.25;;;-3.40;99.90;;;;;;5056054;28;20112;-88
2022/12/11 04:12:53;;;;;;;88.93;31.38;;;-3.40;99.90;;;;;;5065441;28;20087;-89
2022/12/11 04:15:19;;;;;;;79.43;29.00;;;-3.40;99.90;;;;;;5090337;28;20020;-89
2022/12/11 04:26:20;;;;;;;80.15;28.75;;;-3.30;99.90;;;;;;5084516;28;20025;-88
2022/12/11 04:28:47;;;;;;;71.25;27.38;;;-3.30;99.90;;;;;;5075862;28;20032;-88
2022/12/11 04:31:19;;;;;;;82.15;30.67;;;-3.40;99.90;;;;;;5084048;28;20028;-89
2022/12/11 04:33:45;;;;;;;70.95;28.40;;;-3.40;99.90;;;;;;5075581;28;20036;-88
2022/12/11 04:36:11;;;;;;;79.60;29.52;;;-3.40;99.90;;;;;;5075750;28;20032;-89
2022/12/11 04:38:37;;;;;;;99.72;36.63;;;-3.40;99.90;;;;;;5081483;28;20122;-89
2022/12/11 04:41:16;;;;;;;93.75;36.30;;;-3.50;99.90;;;;;;5078031;28;20041;-89
2022/12/11 04:43:45;;;;;;;92.45;37.60;;;-3.40;99.90;;;;;;5062428;28;20435;-88
2022/12/11 04:46:19;;;;;;;95.25;36.55;;;-3.40;99.90;;;;;;5075515;28;20093;-89
2022/12/11 04:48:45;;;;;;;97.05;36.97;;;-3.30;99.90;;;;;;5050199;28;20032;-89
2022/12/11 04:51:20;;;;;;;101.57;38.90;;;-3.30;99.90;;;;;;5075180;28;20040;-89
2022/12/11 04:53:46;;;;;;;110.38;42.17;;;-3.30;99.90;;;;;;5051131;28;20025;-89
2022/12/11 04:56:14;;;;;;;106.97;41.15;;;-3.20;99.90;;;;;;5065922;28;20078;-89
2022/12/11 04:58:41;;;;;;;107.35;40.25;;;-3.20;99.90;;;;;;5074075;28;20020;-88
2022/12/11 05:01:08;;;;;;;107.38;39.47;;;-3.40;99.90;;;;;;5074142;28;20031;-88
2022/12/11 05:03:34;;;;;;;106.70;41.13;;;-3.50;99.90;;;;;;5074307;28;20488;-89
2022/12/11 05:06:00;;;;;;;113.50;40.75;;;-3.60;99.90;;;;;;5056211;28;20033;-89
2022/12/11 05:08:26;;;;;;;104.03;40.72;;;-3.50;99.90;;;;;;5073852;28;20025;-89
2022/12/11 05:10:59;;;;;;;104.15;37.58;;;-3.50;99.90;;;;;;5053403;28;20034;-89
2022/12/11 05:13:26;;;;;;;102.30;37.90;;;-3.60;99.90;;;;;;5073984;28;20033;-89
2022/12/11 05:15:52;;;;;;;108.18;37.92;;;-3.60;99.90;;;;;;5067722;28;20476;-89
2022/12/11 05:18:18;;;;;;;97.10;33.45;;;-3.50;99.90;;;;;;5067003;28;20078;-89
2022/12/11 05:20:53;;;;;;;99.30;35.83;;;-3.50;99.90;;;;;;5073788;28;20031;-89
2022/12/11 05:23:18;;;;;;;98.63;35.47;;;-3.50;99.90;;;;;;5073865;28;20119;-88
2022/12/11 05:25:54;;;;;;;88.18;34.30;;;-3.40;99.90;;;;;;5056953;28;20060;-89
2022/12/11 05:28:21;;;;;;;102.88;35.55;;;-3.30;99.90;;;;;;5073678;28;20029;-88
2022/12/11 05:30:47;;;;;;;95.57;35.22;;;-3.40;99.90;;;;;;5071563;28;20033;-89
2022/12/11 05:33:13;;;;;;;97.75;36.58;;;-3.40;99.90;;;;;;5073612;28;20027;-88
2022/12/11 05:35:45;;;;;;;88.43;35.38;;;-3.50;99.90;;;;;;5071224;28;20127;-88
2022/12/11 05:38:10;;;;;;;95.30;36.97;;;-3.50;99.90;;;;;;5074171;28;20025;-89
2022/12/11 05:40:36;;;;;;;101.47;36.53;;;-3.60;99.90;;;;;;5073242;28;20035;-89
2022/12/11 05:43:01;;;;;;;100.03;35.85;;;-3.60;99.90;;;;;;5055243;28;20021;-89
2022/12/11 05:45:27;;;;;;;90.78;35.67;;;-3.60;99.90;;;;;;5052392;28;20028;-88
2022/12/11 05:47:53;;;;;;;98.22;37.45;;;-3.50;99.90;;;;;;5073168;28;20500;-89
2022/12/11 05:50:18;;;;;;;95.55;35.95;;;-3.50;99.90;;;;;;5066296;28;20059;-88
2022/12/11 05:52:44;;;;;;;110.05;37.72;;;-3.40;99.90;;;;;;5073046;28;20032;-88
2022/12/11 05:55:10;;;;;;;95.32;36.50;;;-3.50;99.90;;;;;;5069806;28;20021;-88
2022/12/11 05:57:35;;;;;;;108.07;37.65;;;-3.40;99.90;;;;;;5054107;28;20107;-88
2022/12/11 06:00:01;;;;;;;100.47;36.05;;;-3.50;99.90;;;;;;5071392;28;20032;-88
2022/12/11 06:02:27;;;;;;;106.90;38.17;;;-3.60;99.90;;;;;;5061335;28;20486;-88
2022/12/11 06:04:52;;;;;;;103.10;37.40;;;-3.70;99.90;;;;;;5050382;28;20491;-88
2022/12/11 06:07:18;;;;;;;99.80;37.35;;;-3.70;99.90;;;;;;5072277;28;20062;-88
2022/12/11 06:09:44;;;;;;;99.03;37.63;;;-3.70;99.90;;;;;;5072343;28;20032;-88
2022/12/11 06:12:09;;;;;;;96.25;37.35;;;-3.70;99.90;;;;;;5064001;28;20028;-88
2022/12/11 06:14:35;;;;;;;111.97;39.15;;;-3.70;99.90;;;;;;5056052;28;20074;-88
2022/12/11 06:17:01;;;;;;;117.10;39.13;;;-3.70;99.90;;;;;;5043528;28;20021;-88
2022/12/11 06:19:26;;;;;;;119.90;39.65;;;-3.70;99.90;;;;;;5056417;28;20044;-88
2022/12/11 06:21:52;;;;;;;119.30;43.42;;;-3.60;99.90;;;;;;5068360;28;20035;-88
2022/12/11 06:24:18;;;;;;;112.65;41.90;;;-3.70;99.90;;;;;;5072466;28;20056;-88
2022/12/11 06:26:43;;;;;;;115.43;43.47;;;-3.70;99.90;;;;;;5067894;28;20040;-88
2022/12/11 06:29:09;;;;;;;112.53;40.80;;;-3.70;99.90;;;;;;5042330;28;20035;-88
2022/12/11 06:31:35;;;;;;;123.25;43.13;;;-3.70;99.90;;;;;;5069199;28;20028;-88
2022/12/11 06:34:00;;;;;;;120.28;41.58;;;-3.70;99.90;;;;;;5054359;28;20029;-88
2022/12/11 06:36:26;;;;;;;119.80;42.47;;;-3.70;99.90;;;;;;5076682;28;20029;-88
2022/12/11 06:38:54;;;;;;;116.78;42.35;;;-3.60;99.90;;;;;;5053206;28;20031;-88
2022/12/11 06:41:19;;;;;;;110.80;42.88;;;-3.60;99.90;;;;;;5068974;28;20021;-88
2022/12/11 06:43:46;;;;;;;116.32;42.22;;;-3.70;99.90;;;;;;5061456;28;20025;-88
2022/12/11 06:46:16;;;;;;;120.55;43.03;;;-3.80;99.90;;;;;;5068997;28;20064;-88
2022/12/11 06:48:43;;;;;;;136.95;44.80;;;-3.90;99.90;;;;;;5068332;28;20056;-87
2022/12/11 06:51:11;;;;;;;124.78;44.53;;;-4.00;99.90;;;;;;5055187;28;20115;-88
2022/12/11 06:53:38;;;;;;;114.28;41.55;;;-4.00;99.90;;;;;;5075526;28;20070;-88
2022/12/11 06:56:07;;;;;;;123.38;41.53;;;-4.20;99.90;;;;;;5055205;28;20032;-88
2022/12/11 06:58:34;;;;;;;142.98;48.22;;;-4.40;99.90;;;;;;5074492;28;20447;-88
2022/12/11 07:01:00;;;;;;;135.50;45.95;;;-4.50;99.90;;;;;;5072393;28;20115;-88
2022/12/11 07:03:27;;;;;;;148.50;48.90;;;-4.70;99.90;;;;;;5068184;28;20044;-87
2022/12/11 07:05:52;;;;;;;144.43;51.33;;;-4.80;99.90;;;;;;5067700;28;20032;-88
2022/12/11 07:08:18;;;;;;;147.55;52.00;;;-4.70;99.90;;;;;;5035414;28;20029;-88
2022/12/11 07:10:44;;;;;;;148.82;53.65;;;-4.60;99.90;;;;;;5067587;28;20024;-88
2022/12/11 07:13:09;;;;;;;167.15;53.38;;;-4.50;99.90;;;;;;5068308;28;20109;-88
2022/12/11 07:15:35;;;;;;;155.88;54.88;;;-4.50;99.90;;;;;;5064554;28;20024;-88
2022/12/11 07:18:01;;;;;;;153.93;56.88;;;-4.40;99.90;;;;;;5045490;28;20043;-88
2022/12/11 07:20:27;;;;;;;227.63;88.28;;;-4.40;99.90;;;;;;5059242;28;20037;-88
2022/12/11 07:22:53;;;;;;;335.48;119.07;;;-4.60;99.90;;;;;;5066171;28;20024;-88
2022/12/11 07:25:19;;;;;;;220.90;81.10;;;-4.70;99.90;;;;;;5043073;28;20032;-89
2022/12/11 07:27:45;;;;;;;243.30;90.57;;;-4.80;99.90;;;;;;5048898;28;20048;-88
2022/12/11 07:30:11;;;;;;;256.83;89.88;;;-4.80;99.90;;;;;;5074368;28;20476;-88
2022/12/11 07:32:37;;;;;;;188.60;68.40;;;-4.90;99.90;;;;;;5074250;28;20161;-88
2022/12/11 07:35:04;;;;;;;159.07;54.17;;;-4.80;99.90;;;;;;5047920;28;20033;-88
2022/12/11 07:37:30;;;;;;;145.02;52.70;;;-4.70;99.90;;;;;;5066733;28;20029;-88
2022/12/11 07:39:55;;;;;;;153.73;56.85;;;-4.60;99.90;;;;;;5062106;28;20028;-88
2022/12/11 07:42:21;;;;;;;162.18;56.55;;;-4.50;99.90;;;;;;5052752;28;20031;-88
2022/12/11 07:44:47;;;;;;;156.40;55.30;;;-4.30;99.90;;;;;;5048339;28;20052;-88
2022/12/11 07:47:13;;;;;;;161.95;56.75;;;-4.20;99.90;;;;;;5073566;28;20468;-89
2022/12/11 07:49:38;;;;;;;170.23;53.58;;;-4.10;99.90;;;;;;5054061;28;20044;-88
2022/12/11 07:52:04;;;;;;;155.35;53.75;;;-4.00;99.90;;;;;;5064396;28;20029;-88
2022/12/11 07:54:30;;;;;;;282.13;55.35;;;-3.90;99.90;;;;;;5054428;28;20037;-89
2022/12/11 07:57:32;;;;;;;155.75;51.15;;;-3.80;99.90;;;;;;5073238;28;20033;-88
2022/12/11 07:59:57;;;;;;;286.45;53.33;;;-3.70;99.90;;;;;;5066858;28;20067;-88
2022/12/11 08:02:23;;;;;;;366.05;57.75;;;-3.60;99.90;;;;;;5054425;28;20068;-88
2022/12/11 08:04:49;;;;;;;158.10;49.88;;;-3.60;99.90;;;;;;5069953;28;20032;-89
2022/12/11 08:07:14;;;;;;;158.80;49.75;;;-3.60;99.90;;;;;;5070459;28;20082;-88
2022/12/11 08:09:40;;;;;;;149.00;47.35;;;-3.50;99.90;;;;;;5063869;28;20029;-88
2022/12/11 08:12:06;;;;;;;180.85;53.75;;;-3.50;99.90;;;;;;5062358;28;20025;-88
2022/12/11 08:14:31;;;;;;;148.77;46.85;;;-3.50;99.90;;;;;;5062752;28;20167;-88
2022/12/11 08:16:58;;;;;;;127.10;44.63;;;-3.50;99.90;;;;;;5063587;28;20039;-88
2022/12/11 08:19:24;;;;;;;146.75;46.60;;;-3.50;99.90;;;;;;5062615;28;20551;-88
2022/12/11 08:21:50;;;;;;;132.68;45.35;;;-3.50;99.90;;;;;;5064002;28;20166;-88
2022/12/11 08:24:19;;;;;;;130.27;43.67;;;-3.60;99.90;;;;;;5059357;28;20157;-88
2022/12/11 08:26:45;;;;;;;132.45;44.58;;;-3.60;99.90;;;;;;5074139;28;20036;-88
2022/12/11 08:29:11;;;;;;;158.52;51.33;;;-3.70;99.90;;;;;;5066906;28;20023;-88
2022/12/11 08:31:39;;;;;;;161.15;57.08;;;-3.60;99.90;;;;;;5054729;28;20145;-88
2022/12/11 08:34:05;;;;;;;146.77;50.70;;;-3.60;99.90;;;;;;5057573;28;20025;-88
2022/12/11 08:36:31;;;;;;;171.60;55.72;;;-3.50;99.90;;;;;;5075584;28;20502;-88
2022/12/11 08:38:57;;;;;;;145.90;52.40;;;-3.40;99.90;;;;;;5064662;28;20115;-88
2022/12/11 08:41:26;;;;;;;141.60;52.80;;;-3.30;99.90;;;;;;5072929;28;20477;-88
2022/12/11 08:43:53;;;;;;;127.55;49.88;;;-3.20;99.90;;;;;;5069678;28;20529;-88
2022/12/11 08:46:24;;;;;;;130.43;49.42;;;-3.10;99.90;;;;;;5066703;28;20127;-88
2022/12/11 08:48:50;;;;;;;134.95;47.78;;;-3.00;99.90;;;;;;5069364;28;20068;-89
2022/12/11 08:51:19;;;;;;;143.60;51.60;;;-2.90;99.90;;;;;;5056381;28;20060;-88
2022/12/11 08:53:45;;;;;;;152.13;54.10;;;-2.70;99.90;;;;;;5073066;28;20059;-88
2022/12/11 08:56:13;;;;;;;133.32;51.53;;;-2.60;99.90;;;;;;5056558;28;20029;-89
2022/12/11 08:58:39;;;;;;;114.28;40.15;;;-2.50;99.90;;;;;;5071423;28;20028;-88
2022/12/11 09:01:08;;;;;;;98.53;37.97;;;-2.40;99.90;;;;;;5062176;28;20032;-88
2022/12/11 09:03:34;;;;;;;126.82;49.55;;;-2.20;99.90;;;;;;5071623;28;20037;-88
2022/12/11 09:06:04;;;;;;;120.20;48.15;;;-2.00;99.90;;;;;;5051336;28;20060;-88
2022/12/11 09:08:29;;;;;;;106.72;43.33;;;-2.00;99.90;;;;;;5082614;28;20032;-88
2022/12/11 09:10:55;;;;;;;100.82;39.72;;;-2.00;99.90;;;;;;5089980;28;20029;-88
2022/12/11 09:13:20;;;;;;;90.10;37.10;;;-1.90;99.90;;;;;;5079505;28;20353;-88
2022/12/11 09:15:46;;;;;;;84.72;35.92;;;-1.90;99.90;;;;;;5076277;28;20020;-89
2022/12/11 09:18:12;;;;;;;90.40;36.10;;;-1.90;99.90;;;;;;5067862;28;20025;-88
2022/12/11 09:20:37;;;;;;;81.95;33.63;;;-1.90;99.90;;;;;;5070856;28;20028;-88
2022/12/11 09:23:03;;;;;;;109.53;40.10;;;-2.00;99.90;;;;;;5058625;28;20029;-88
2022/12/11 09:25:29;;;;;;;82.55;32.40;;;-1.90;99.90;;;;;;5092820;28;20032;-88
2022/12/11 09:27:54;;;;;;;79.18;29.10;;;-1.80;99.90;;;;;;5072230;28;20028;-88
2022/12/11 09:30:20;;;;;;;66.68;26.60;;;-1.90;99.90;;;;;;5063951;28;20056;-88
2022/12/11 09:32:49;;;;;;;75.47;31.00;;;-1.90;99.90;;;;;;5053352;28;20024;-88
2022/12/11 09:35:15;;;;;;;71.07;30.15;;;-2.00;99.90;;;;;;5062378;28;20119;-88
2022/12/11 09:37:41;;;;;;;96.80;33.40;;;-2.00;99.90;;;;;;5069393;28;20440;-88
2022/12/11 09:40:10;;;;;;;101.75;35.58;;;-2.10;99.90;;;;;;5058519;28;20491;-88
2022/12/11 09:42:51;;;;;;;88.65;33.45;;;-2.10;99.90;;;;;;5072416;28;20098;-88
2022/12/11 09:45:18;;;;;;;106.07;36.15;;;-2.10;99.90;;;;;;5075158;28;20028;-88
2022/12/11 09:48:03;;;;;;;69.32;28.15;;;-2.10;99.90;;;;;;5072718;28;20029;-88
2022/12/11 09:50:32;;;;;;;68.93;30.02;;;-2.00;99.90;;;;;;5058763;28;20703;-88
2022/12/11 09:53:28;;;;;;;68.60;26.67;;;-2.00;99.90;;;;;;5069459;28;20037;-87
2022/12/11 09:56:31;;;;;;;85.80;32.28;;;-2.00;99.90;;;;;;5075306;28;20117;-88
2022/12/11 09:59:18;;;;;;;202.70;70.88;;;-1.80;99.90;;;;;;5049652;28;20387;-87
2022/12/11 10:01:53;;;;;;;141.05;50.13;;;-1.90;99.90;;;;;;5062554;28;20036;-88
2022/12/11 10:04:44;;;;;;;93.78;34.47;;;-1.90;99.90;;;;;;5062737;28;20028;-88
2022/12/11 10:07:25;;;;;;;;;;;-1.60;99.90;;;;;;5072093;28;20033;-88
2022/12/11 10:10:04;;;;;;;43.95;19.35;;;-1.30;99.90;;;;;;5081190;28;19927;-88
2022/12/11 10:13:08;;;;;;;51.65;23.48;;;-1.20;99.90;;;;;;5056060;28;20518;-88
2022/12/11 10:15:48;;;;;;;47.15;22.52;;;-1.30;99.90;;;;;;4960270;28;20096;-88
2022/12/11 10:18:18;;;;;;;58.55;26.50;;;-1.40;99.90;;;;;;5043148;28;20033;-88
2022/12/11 10:20:44;;;;;;;54.47;23.85;;;-1.60;99.90;;;;;;5072426;28;20432;-88
2022/12/11 10:23:47;;;;;;;59.33;24.88;;;-1.60;99.90;;;;;;5058353;28;20038;-88
2022/12/11 10:26:19;;;;;;;105.68;40.35;;;-1.80;99.90;;;;;;5074144;28;20128;-88
2022/12/11 10:28:45;;;;;;;63.75;28.13;;;-1.90;99.90;;;;;;5068550;28;20086;-88
2022/12/11 10:31:23;;;;;;;70.50;30.63;;;-2.00;99.90;;;;;;5071395;28;20040;-88
2022/12/11 10:34:01;;;;;;;119.60;44.72;;;-2.00;99.90;;;;;;5072141;28;20123;-88
2022/12/11 10:36:30;;;;;;;91.38;38.28;;;-2.00;99.90;;;;;;5043800;28;20151;-88
2022/12/11 10:38:56;;;;;;;69.28;29.88;;;-1.90;99.90;;;;;;5077027;28;20494;-88
2022/12/11 10:41:42;;;;;;;118.63;49.15;;;-1.90;99.90;;;;;;5070233;28;20032;-88
2022/12/11 10:44:20;;;;;;;79.28;33.05;;;-1.90;99.90;;;;;;5048731;28;20048;-88
2022/12/11 10:46:48;;;;;;;65.15;26.73;;;-2.00;99.90;;;;;;5074283;28;20820;-88
2022/12/11 10:49:26;;;;;;;78.13;31.33;;;-2.00;99.90;;;;;;5068211;28;20123;-88
2022/12/11 10:52:30;;;;;;;66.75;26.52;;;-2.10;99.90;;;;;;5064761;28;20029;-88
2022/12/11 10:55:16;;;;;;;59.97;24.67;;;-1.90;99.90;;;;;;5070895;28;20040;-88
2022/12/11 10:57:44;;;;;;;56.25;25.25;;;-1.90;99.90;;;;;;5081468;28;20422;-87
2022/12/11 11:00:29;;;;;;;47.10;18.67;;;-1.80;99.90;;;;;;5066216;28;20008;-87
2022/12/11 11:02:55;;;;;;;57.25;22.92;;;-1.80;99.90;;;;;;5064201;28;20028;-87
2022/12/11 11:05:33;;;;;;;58.50;25.95;;;-1.80;99.90;;;;;;5058672;28;20502;-88
2022/12/11 11:08:21;;;;;;;57.67;24.27;;;-1.70;99.90;;;;;;5064398;28;20642;-88
2022/12/11 11:11:00;;;;;;;54.08;22.15;;;-1.40;99.90;;;;;;5084813;28;20033;-89
2022/12/11 11:13:28;;;;;;;46.88;20.48;;;-1.30;99.90;;;;;;5068718;28;20107;-87
2022/12/11 11:16:08;;;;;;;51.50;23.58;;;-1.30;99.90;;;;;;5071924;28;20032;-87
2022/12/11 11:18:34;;;;;;;46.35;20.58;;;-1.30;99.90;;;;;;5068343;28;20025;-88
2022/12/11 11:21:01;;;;;;;39.63;16.05;;;-1.40;99.90;;;;;;5057192;28;20032;-88
2022/12/11 11:23:27;;;;;;;39.25;15.98;;;-1.50;99.90;;;;;;5058056;28;20112;-88
2022/12/11 11:26:05;;;;;;;35.85;16.23;;;-1.70;99.90;;;;;;5075207;28;20040;-88
2022/12/11 11:28:36;;;;;;;40.83;18.83;;;-1.70;99.90;;;;;;5065535;28;20064;-88
2022/12/11 11:31:05;;;;;;;50.00;18.23;;;-1.80;99.90;;;;;;5075505;28;20694;-88
2022/12/11 11:33:36;;;;;;;54.90;22.63;;;-1.80;99.90;;;;;;5066614;28;20039;-88
2022/12/11 11:36:06;;;;;;;41.33;17.88;;;-1.90;99.90;;;;;;5076235;28;20025;-88
2022/12/11 11:38:47;;;;;;;45.90;18.98;;;-1.90;99.90;;;;;;5075391;28;20480;-88
2022/12/11 11:41:47;;;;;;;41.08;18.80;;;-1.90;99.90;;;;;;5079111;28;20449;-88
2022/12/11 11:44:19;;;;;;;44.72;19.75;;;-2.10;99.90;;;;;;5058540;28;20131;-88
2022/12/11 11:46:56;;;;;;;47.95;19.85;;;-2.10;99.90;;;;;;5075008;28;20046;-88
2022/12/11 11:49:43;;;;;;;47.08;21.15;;;-2.10;99.90;;;;;;5060302;28;20036;-88
2022/12/11 11:52:20;;;;;;;54.88;21.52;;;-2.20;99.90;;;;;;5066827;28;20021;-88
2022/12/11 11:54:55;;;;;;;57.42;23.90;;;-2.00;99.90;;;;;;5074853;28;20170;-88
2022/12/11 11:57:47;;;;;;;49.53;20.67;;;-2.00;99.90;;;;;;5062190;28;20043;-88
2022/12/11 12:00:22;;;;;;;54.03;22.50;;;-1.80;99.90;;;;;;5065513;28;20415;-88
2022/12/11 12:02:53;;;;;;;52.35;22.50;;;-1.60;99.90;;;;;;5070605;28;20082;-88
2022/12/11 12:05:25;;;;;;;57.70;26.20;;;-1.40;99.90;;;;;;5066717;28;20040;-88
2022/12/11 12:08:31;;;;;;;57.47;24.55;;;-1.30;99.90;;;;;;5071180;28;20032;-87
2022/12/11 12:11:20;;;;;;;55.78;24.85;;;-1.20;99.90;;;;;;5069611;28;20029;-88
2022/12/11 12:13:51;;;;;;;54.45;23.42;;;-1.10;99.90;;;;;;5069282;28;20031;-88
2022/12/11 12:16:38;;;;;;;49.60;22.38;;;-1.10;99.90;;;;;;5072965;28;20029;-88
2022/12/11 12:19:21;;;;;;;48.63;22.08;;;-0.80;99.90;;;;;;5067001;28;20461;-88
2022/12/11 12:21:51;;;;;;;47.40;21.45;;;-0.70;99.90;;;;;;5071976;28;20025;-88
2022/12/11 12:24:43;;;;;;;48.80;22.90;;;-0.50;99.90;;;;;;5081544;28;20020;-88
2022/12/11 12:27:47;;;;;;;41.00;20.45;;;-0.50;99.90;;;;;;5078373;28;20029;-88
2022/12/11 12:30:17;;;;;;;48.97;20.80;;;-0.30;99.90;;;;;;5077815;28;20123;-88
2022/12/11 12:33:01;;;;;;;42.63;19.42;;;-0.40;99.90;;;;;;5070397;28;20427;-88
2022/12/11 12:35:50;;;;;;;42.63;20.38;;;-0.50;99.90;;;;;;5079823;28;20059;-89
2022/12/11 12:38:30;;;;;;;53.20;22.67;;;-0.60;99.90;;;;;;5071553;28;20020;-88
2022/12/11 12:41:12;;;;;;;47.30;22.70;;;-0.60;99.90;;;;;;5058825;28;20495;-87
2022/12/11 12:44:12;;;;;;;80.63;34.97;;;-0.50;99.90;;;;;;5047004;28;20502;-88
2022/12/11 12:46:37;;;;;;;61.75;27.67;;;-0.50;99.90;;;;;;5069106;28;20024;-88
2022/12/11 12:49:06;;;;;;;46.95;21.48;;;-0.70;99.90;;;;;;5061961;28;20396;-87
2022/12/11 12:51:32;;;;;;;47.72;22.15;;;-0.90;99.90;;;;;;5072626;28;20028;-88
2022/12/11 12:54:02;;;;;;;57.50;24.00;;;-1.00;99.90;;;;;;5062083;28;20020;-88
2022/12/11 12:56:30;;;;;;;55.15;26.05;;;-1.00;99.90;;;;;;5057969;28;20115;-88